createdAt,value
2022-12-07T00:00:42.797Z,33.80
2022-12-07T00:01:42.811Z,32.90
2022-12-07T00:02:42.872Z,33.30
2022-12-07T00:03:42.850Z,33.20
2022-12-07T00:04:42.766Z,33.80
2022-12-07T00:05:42.762Z,33.40
2022-12-07T00:06:42.761Z,33.30
2022-12-07T00:07:42.776Z,32.90
2022-12-07T00:08:42.751Z,33.60
2022-12-07T00:09:42.760Z,33.20
2022-12-07T00:10:42.732Z,31.90
2022-12-07T00:11:42.731Z,31.40
2022-12-07T00:12:42.729Z,31.50
2022-12-07T00:13:42.713Z,32.00
2022-12-07T00:14:42.706Z,31.80
2022-12-07T00:15:42.708Z,32.60
2022-12-07T00:16:42.771Z,32.90
2022-12-07T00:17:42.689Z,32.00
2022-12-07T00:18:42.686Z,31.50
2022-12-07T00:19:42.682Z,33.30
2022-12-07T00:20:42.671Z,33.40
2022-12-07T00:21:42.667Z,26.80
2022-12-07T00:22:42.662Z,26.60
2022-12-07T00:23:42.677Z,28.00
2022-12-07T00:24:42.647Z,28.40
2022-12-07T00:25:42.643Z,31.60
2022-12-07T00:26:42.633Z,33.10
2022-12-07T00:27:42.636Z,33.50
2022-12-07T00:28:42.622Z,34.20
2022-12-07T00:29:42.616Z,33.90
2022-12-07T00:30:42.616Z,34.40
2022-12-07T00:31:42.740Z,32.40
2022-12-07T00:32:42.600Z,34.00
2022-12-07T00:33:42.594Z,34.00
2022-12-07T00:34:42.587Z,34.80
2022-12-07T00:35:42.583Z,34.70
2022-12-07T00:36:42.576Z,34.70
2022-12-07T00:37:42.570Z,35.50
2022-12-07T00:38:42.563Z,35.10
2022-12-07T00:39:42.588Z,35.90
2022-12-07T00:40:42.551Z,36.10
2022-12-07T00:41:42.547Z,35.50
2022-12-07T00:42:42.542Z,36.30
2022-12-07T00:43:42.536Z,36.60
2022-12-07T00:44:42.529Z,35.80
2022-12-07T00:45:42.600Z,36.30
2022-12-07T00:46:42.516Z,36.60
2022-12-07T00:47:42.514Z,35.80
2022-12-07T00:48:42.503Z,36.50
2022-12-07T00:49:42.498Z,37.20
2022-12-07T00:50:42.490Z,36.70
2022-12-07T00:51:42.490Z,36.80
2022-12-07T00:52:42.483Z,36.60
2022-12-07T00:53:42.480Z,37.00
2022-12-07T00:54:42.470Z,38.10
2022-12-07T00:55:42.484Z,37.40
2022-12-07T00:56:42.461Z,37.20
2022-12-07T00:57:42.453Z,37.40
2022-12-07T00:58:42.452Z,37.70
2022-12-07T00:59:42.450Z,39.50
2022-12-07T01:00:42.443Z,33.50
2022-12-07T01:01:42.539Z,33.90
2022-12-07T01:02:42.773Z,34.10
2022-12-07T01:03:42.553Z,35.10
2022-12-07T01:04:42.406Z,34.50
2022-12-07T01:05:42.401Z,37.40
2022-12-07T01:06:42.395Z,37.50
2022-12-07T01:07:42.435Z,39.10
2022-12-07T01:08:42.383Z,38.90
2022-12-07T01:09:42.377Z,38.60
2022-12-07T01:10:42.369Z,39.10
2022-12-07T01:11:42.385Z,38.70
2022-12-07T01:12:42.358Z,37.80
2022-12-07T01:13:42.354Z,38.70
2022-12-07T01:14:42.349Z,38.80
2022-12-07T01:15:42.341Z,38.70
2022-12-07T01:16:42.419Z,37.70
2022-12-07T01:17:42.328Z,38.70
2022-12-07T01:18:42.327Z,38.70
2022-12-07T01:19:42.327Z,38.80
2022-12-07T01:20:42.317Z,33.60
2022-12-07T01:21:42.313Z,35.30
2022-12-07T01:22:42.299Z,34.30
2022-12-07T01:23:42.294Z,35.30
2022-12-07T01:24:42.284Z,34.60
2022-12-07T01:25:42.281Z,37.00
2022-12-07T01:26:42.274Z,38.60
2022-12-07T01:27:42.293Z,40.20
2022-12-07T01:28:42.270Z,39.80
2022-12-07T01:29:42.257Z,40.20
2022-12-07T01:30:42.265Z,38.70
2022-12-07T01:31:42.248Z,39.20
2022-12-07T01:32:42.245Z,39.10
2022-12-07T01:33:42.234Z,39.30
2022-12-07T01:34:42.232Z,39.50
2022-12-07T01:35:42.222Z,40.40
2022-12-07T01:36:42.215Z,40.70
2022-12-07T01:37:42.209Z,40.10
2022-12-07T01:38:42.200Z,34.80
2022-12-07T01:39:42.198Z,34.60
2022-12-07T01:40:42.191Z,34.60
2022-12-07T01:41:42.186Z,35.00
2022-12-07T01:42:42.176Z,35.20
2022-12-07T01:43:42.195Z,39.40
2022-12-07T01:44:42.171Z,41.10
2022-12-07T01:45:42.268Z,40.70
2022-12-07T01:46:42.161Z,39.40
2022-12-07T01:47:42.154Z,40.10
2022-12-07T01:48:42.143Z,38.90
2022-12-07T01:49:42.137Z,38.90
2022-12-07T01:50:42.130Z,40.10
2022-12-07T01:51:42.136Z,40.00
2022-12-07T01:52:42.120Z,39.90
2022-12-07T01:53:42.115Z,40.40
2022-12-07T01:54:42.108Z,40.50
2022-12-07T01:55:42.100Z,39.90
2022-12-07T01:56:42.094Z,41.30
2022-12-07T01:57:42.092Z,33.90
2022-12-07T01:58:42.083Z,34.70
2022-12-07T01:59:42.097Z,35.60
2022-12-07T02:00:42.070Z,35.60
2022-12-07T02:01:42.142Z,36.00
2022-12-07T02:02:42.101Z,39.00
2022-12-07T02:03:42.060Z,39.10
2022-12-07T02:04:42.046Z,40.70
2022-12-07T02:05:42.043Z,38.90
2022-12-07T02:06:42.035Z,40.70
2022-12-07T02:07:42.103Z,40.90
2022-12-07T02:08:42.026Z,41.20
2022-12-07T02:09:42.031Z,39.50
2022-12-07T02:10:42.008Z,40.10
2022-12-07T02:11:42.005Z,39.20
2022-12-07T02:12:42.002Z,39.20
2022-12-07T02:13:41.999Z,39.70
2022-12-07T02:14:41.985Z,38.60
2022-12-07T02:15:42.101Z,38.30
2022-12-07T02:16:41.974Z,39.80
2022-12-07T02:17:41.968Z,39.00
2022-12-07T02:18:41.962Z,37.70
2022-12-07T02:19:41.963Z,38.20
2022-12-07T02:20:41.951Z,38.70
2022-12-07T02:21:41.949Z,38.10
2022-12-07T02:22:41.938Z,37.90
2022-12-07T02:23:41.938Z,35.50
2022-12-07T02:24:41.927Z,32.80
2022-12-07T02:25:41.929Z,33.10
2022-12-07T02:26:41.913Z,33.60
2022-12-07T02:27:41.912Z,34.30
2022-12-07T02:28:41.903Z,37.20
2022-12-07T02:29:41.897Z,37.30
2022-12-07T02:30:41.947Z,37.60
2022-12-07T02:31:41.905Z,37.50
2022-12-07T02:32:41.879Z,38.40
2022-12-07T02:33:41.875Z,36.80
2022-12-07T02:34:41.869Z,37.00
2022-12-07T02:35:41.860Z,37.00
2022-12-07T02:36:41.857Z,36.70
2022-12-07T02:37:41.850Z,37.20
2022-12-07T02:38:41.842Z,37.30
2022-12-07T02:39:41.838Z,36.90
2022-12-07T02:40:41.830Z,36.70
2022-12-07T02:41:41.823Z,32.00
2022-12-07T02:42:41.821Z,31.80
2022-12-07T02:43:41.816Z,32.90
2022-12-07T02:44:41.805Z,32.70
2022-12-07T02:45:41.799Z,34.60
2022-12-07T02:46:41.959Z,37.00
2022-12-07T02:47:41.807Z,37.70
2022-12-07T02:48:41.780Z,37.80
2022-12-07T02:49:41.775Z,37.20
2022-12-07T02:50:41.768Z,37.90
2022-12-07T02:51:41.764Z,36.70
2022-12-07T02:52:41.756Z,38.10
2022-12-07T02:53:41.753Z,37.00
2022-12-07T02:54:41.745Z,37.40
2022-12-07T02:55:41.736Z,37.00
2022-12-07T02:56:41.733Z,37.40
2022-12-07T02:57:41.724Z,32.20
2022-12-07T02:58:41.724Z,32.50
2022-12-07T02:59:41.717Z,32.90
2022-12-07T03:00:41.714Z,33.30
2022-12-07T03:01:41.826Z,33.50
2022-12-07T03:02:41.753Z,36.10
2022-12-07T03:03:41.730Z,36.80
2022-12-07T03:04:41.686Z,37.80
2022-12-07T03:05:41.683Z,38.80
2022-12-07T03:06:41.678Z,39.10
2022-12-07T03:07:41.745Z,38.00
2022-12-07T03:08:41.663Z,38.60
2022-12-07T03:09:41.649Z,37.50
2022-12-07T03:10:41.645Z,36.80
2022-12-07T03:11:41.638Z,38.00
2022-12-07T03:12:41.634Z,37.80
2022-12-07T03:13:41.626Z,38.20
2022-12-07T03:14:41.627Z,37.80
2022-12-07T03:15:41.661Z,37.80
2022-12-07T03:16:41.612Z,36.90
2022-12-07T03:17:41.602Z,36.70
2022-12-07T03:18:41.594Z,37.50
2022-12-07T03:19:41.607Z,36.70
2022-12-07T03:20:41.585Z,37.80
2022-12-07T03:21:41.576Z,37.60
2022-12-07T03:22:41.573Z,36.90
2022-12-07T03:23:41.564Z,37.70
2022-12-07T03:24:41.562Z,33.50
2022-12-07T03:25:41.555Z,32.50
2022-12-07T03:26:41.547Z,33.60
2022-12-07T03:27:41.541Z,33.80
2022-12-07T03:28:41.535Z,33.00
2022-12-07T03:29:41.526Z,36.90
2022-12-07T03:30:41.562Z,37.70
2022-12-07T03:31:41.639Z,36.60
2022-12-07T03:32:41.511Z,38.20
2022-12-07T03:33:41.501Z,36.20
2022-12-07T03:34:41.496Z,37.90
2022-12-07T03:35:41.508Z,37.70
2022-12-07T03:36:41.486Z,38.00
2022-12-07T03:37:41.476Z,37.40
2022-12-07T03:38:41.473Z,37.80
2022-12-07T03:39:41.465Z,38.00
2022-12-07T03:40:41.466Z,37.40
2022-12-07T03:41:45.158Z,37.60
2022-12-07T03:42:41.448Z,36.70
2022-12-07T03:43:41.444Z,37.60
2022-12-07T03:44:41.434Z,36.50
2022-12-07T03:45:41.430Z,36.70
2022-12-07T03:46:41.490Z,33.70
2022-12-07T03:47:41.422Z,31.30
2022-12-07T03:48:41.428Z,32.00
2022-12-07T03:49:41.414Z,32.80
2022-12-07T03:50:41.398Z,32.00
2022-12-07T03:51:41.409Z,36.10
2022-12-07T03:52:41.389Z,36.00
2022-12-07T03:53:41.375Z,36.60
2022-12-07T03:54:41.371Z,36.30
2022-12-07T03:55:41.361Z,36.10
2022-12-07T03:56:41.361Z,35.60
2022-12-07T03:57:41.352Z,36.20
2022-12-07T03:58:41.358Z,35.10
2022-12-07T03:59:41.341Z,35.40
2022-12-07T04:00:41.336Z,34.90
2022-12-07T04:01:41.389Z,35.30
2022-12-07T04:02:41.395Z,35.60
2022-12-07T04:03:41.316Z,35.30
2022-12-07T04:04:41.311Z,34.70
2022-12-07T04:05:41.303Z,30.80
2022-12-07T04:06:41.301Z,30.40
2022-12-07T04:07:41.351Z,31.40
2022-12-07T04:08:41.285Z,31.10
2022-12-07T04:09:41.277Z,31.30
2022-12-07T04:10:41.274Z,33.90
2022-12-07T04:11:41.267Z,34.60
2022-12-07T04:12:41.265Z,34.10
2022-12-07T04:13:41.254Z,34.90
2022-12-07T04:14:41.246Z,33.80
2022-12-07T04:15:41.300Z,34.40
2022-12-07T04:16:44.668Z,34.70
2022-12-07T04:17:41.223Z,34.20
2022-12-07T04:18:41.220Z,33.60
2022-12-07T04:19:41.209Z,34.60
2022-12-07T04:20:41.205Z,35.40
2022-12-07T04:21:41.198Z,34.30
2022-12-07T04:22:41.193Z,34.40
2022-12-07T04:23:41.300Z,34.80
2022-12-07T04:24:41.183Z,29.10
2022-12-07T04:25:41.172Z,30.20
2022-12-07T04:26:41.186Z,30.00
2022-12-07T04:27:41.171Z,30.40
2022-12-07T04:28:41.158Z,33.00
2022-12-07T04:29:41.146Z,34.30
2022-12-07T04:30:41.142Z,35.20
2022-12-07T04:31:41.219Z,34.70
2022-12-07T04:32:41.147Z,35.30
2022-12-07T04:33:41.122Z,35.00
2022-12-07T04:34:41.120Z,35.60
2022-12-07T04:35:41.114Z,34.70
2022-12-07T04:36:41.106Z,34.00
2022-12-07T04:37:41.103Z,35.20
2022-12-07T04:38:41.090Z,35.40
2022-12-07T04:39:41.099Z,34.60
2022-12-07T04:40:41.080Z,35.00
2022-12-07T04:41:41.068Z,34.80
2022-12-07T04:42:41.065Z,34.40
2022-12-07T04:43:41.063Z,34.40
2022-12-07T04:44:41.051Z,34.30
2022-12-07T04:45:41.041Z,33.40
2022-12-07T04:46:41.098Z,33.90
2022-12-07T04:47:41.034Z,33.70
2022-12-07T04:48:41.028Z,29.60
2022-12-07T04:49:41.019Z,28.90
2022-12-07T04:50:45.977Z,29.70
2022-12-07T04:51:41.008Z,29.70
2022-12-07T04:52:41.001Z,30.60
2022-12-07T04:53:40.994Z,31.40
2022-12-07T04:54:40.987Z,32.50
2022-12-07T04:55:40.998Z,32.40
2022-12-07T04:56:40.979Z,31.80
2022-12-07T04:57:40.965Z,32.40
2022-12-07T04:58:40.961Z,31.70
2022-12-07T04:59:45.350Z,30.70
2022-12-07T05:00:40.970Z,30.10
2022-12-07T05:01:40.996Z,31.10
2022-12-07T05:02:40.936Z,31.10
2022-12-07T05:03:40.931Z,30.90
2022-12-07T05:04:40.925Z,28.20
2022-12-07T05:05:40.916Z,26.20
2022-12-07T05:06:40.914Z,28.00
2022-12-07T05:07:40.923Z,27.30
2022-12-07T05:08:40.899Z,26.10
2022-12-07T05:09:40.888Z,26.80
2022-12-07T05:10:40.883Z,30.40
2022-12-07T05:11:40.991Z,30.10
2022-12-07T05:12:40.872Z,30.60
2022-12-07T05:13:40.865Z,30.00
2022-12-07T05:14:40.865Z,30.00
2022-12-07T05:15:40.850Z,28.90
2022-12-07T05:16:40.960Z,29.60
2022-12-07T05:17:40.839Z,29.40
2022-12-07T05:18:40.832Z,29.80
2022-12-07T05:19:40.826Z,30.30
2022-12-07T05:20:42.686Z,26.60
2022-12-07T05:21:40.811Z,26.30
2022-12-07T05:22:40.809Z,26.90
2022-12-07T05:23:40.799Z,28.00
2022-12-07T05:24:40.794Z,26.70
2022-12-07T05:25:40.786Z,27.60
2022-12-07T05:26:40.782Z,30.40
2022-12-07T05:27:40.795Z,29.20
2022-12-07T05:28:40.771Z,29.80
2022-12-07T05:29:40.763Z,29.00
2022-12-07T05:30:40.754Z,28.40
2022-12-07T05:31:40.856Z,28.00
2022-12-07T05:32:40.743Z,27.90
2022-12-07T05:33:40.743Z,27.50
2022-12-07T05:34:40.730Z,26.80
2022-12-07T05:35:40.728Z,28.20
2022-12-07T05:36:40.717Z,27.60
2022-12-07T05:37:40.711Z,26.70
2022-12-07T05:38:40.718Z,27.60
2022-12-07T05:39:40.699Z,27.80
2022-12-07T05:40:40.716Z,27.80
2022-12-07T05:41:40.736Z,27.00
2022-12-07T05:42:40.677Z,27.30
2022-12-07T05:43:40.706Z,27.00
2022-12-07T05:44:40.664Z,23.40
2022-12-07T05:45:40.704Z,23.40
2022-12-07T05:46:40.670Z,22.70
2022-12-07T05:47:40.645Z,23.30
2022-12-07T05:48:40.643Z,24.30
2022-12-07T05:49:40.632Z,25.40
2022-12-07T05:50:40.627Z,25.80
2022-12-07T05:51:40.625Z,26.80
2022-12-07T05:52:40.621Z,25.40
2022-12-07T05:53:40.606Z,26.30
2022-12-07T05:54:40.600Z,26.70
2022-12-07T05:55:40.594Z,26.30
2022-12-07T05:56:40.590Z,26.00
2022-12-07T05:57:40.590Z,26.30
2022-12-07T05:58:40.573Z,25.70
2022-12-07T05:59:40.616Z,25.70
2022-12-07T06:00:40.568Z,25.90
2022-12-07T06:01:40.593Z,25.50
2022-12-07T06:02:40.643Z,25.30
2022-12-07T06:03:40.537Z,25.60
2022-12-07T06:04:40.540Z,25.40
2022-12-07T06:05:40.525Z,22.50
2022-12-07T06:06:40.629Z,23.50
2022-12-07T06:07:40.601Z,22.80
2022-12-07T06:08:40.509Z,22.80
2022-12-07T06:09:40.509Z,23.20
2022-12-07T06:10:40.498Z,25.30
2022-12-07T06:11:40.490Z,25.70
2022-12-07T06:12:40.486Z,24.70
2022-12-07T06:13:46.798Z,24.90
2022-12-07T06:14:40.471Z,25.00
2022-12-07T06:15:40.484Z,25.30
2022-12-07T06:16:40.564Z,25.10
2022-12-07T06:17:40.453Z,25.50
2022-12-07T06:18:40.449Z,24.40
2022-12-07T06:19:40.453Z,24.40
2022-12-07T06:20:40.434Z,25.00
2022-12-07T06:21:40.439Z,21.60
2022-12-07T06:22:40.429Z,21.50
2022-12-07T06:23:40.414Z,21.20
2022-12-07T06:24:40.412Z,20.90
2022-12-07T06:25:40.404Z,21.00
2022-12-07T06:26:40.394Z,20.50
2022-12-07T06:27:40.390Z,20.80
2022-12-07T06:28:40.414Z,21.60
2022-12-07T06:29:40.408Z,22.20
2022-12-07T06:30:40.381Z,22.60
2022-12-07T06:31:40.494Z,22.80
2022-12-07T06:32:40.558Z,21.90
2022-12-07T06:33:40.354Z,22.50
2022-12-07T06:34:40.351Z,21.50
2022-12-07T06:35:40.342Z,22.10
2022-12-07T06:36:40.334Z,21.60
2022-12-07T06:37:40.329Z,21.80
2022-12-07T06:38:40.322Z,21.90
2022-12-07T06:39:40.312Z,21.80
2022-12-07T06:40:40.307Z,22.20
2022-12-07T06:41:40.299Z,20.10
2022-12-07T06:42:40.298Z,18.90
2022-12-07T06:43:40.289Z,19.00
2022-12-07T06:44:40.288Z,19.30
2022-12-07T06:45:40.301Z,19.60
2022-12-07T06:46:40.279Z,20.00
2022-12-07T06:47:42.722Z,22.10
2022-12-07T06:48:40.256Z,22.60
2022-12-07T06:49:40.248Z,23.10
2022-12-07T06:50:40.243Z,22.70
2022-12-07T06:51:40.237Z,22.90
2022-12-07T06:52:40.234Z,21.40
2022-12-07T06:53:40.228Z,22.00
2022-12-07T06:54:40.218Z,21.60
2022-12-07T06:55:40.212Z,21.80
2022-12-07T06:56:40.208Z,20.50
2022-12-07T06:57:40.198Z,22.20
2022-12-07T06:58:40.199Z,21.20
2022-12-07T06:59:40.194Z,21.40
2022-12-07T07:00:40.182Z,18.30
2022-12-07T07:01:40.253Z,19.00
2022-12-07T07:02:40.292Z,19.20
2022-12-07T07:03:40.180Z,18.70
2022-12-07T07:04:40.162Z,18.70
2022-12-07T07:05:40.150Z,19.90
2022-12-07T07:06:40.143Z,19.90
2022-12-07T07:07:58.221Z,19.50
2022-12-07T07:08:40.235Z,19.70
2022-12-07T07:09:40.126Z,18.00
2022-12-07T07:10:40.122Z,18.30
2022-12-07T07:11:40.112Z,18.10
2022-12-07T07:12:40.104Z,18.20
2022-12-07T07:13:40.102Z,18.60
2022-12-07T07:14:40.093Z,16.50
2022-12-07T07:15:40.092Z,18.10
2022-12-07T07:16:40.153Z,17.50
2022-12-07T07:17:40.077Z,17.70
2022-12-07T07:18:40.069Z,18.50
2022-12-07T07:19:40.091Z,19.00
2022-12-07T07:20:40.060Z,19.40
2022-12-07T07:21:40.056Z,19.00
2022-12-07T07:22:40.048Z,19.20
2022-12-07T07:23:40.041Z,15.60
2022-12-07T07:24:40.033Z,14.90
2022-12-07T07:25:40.028Z,17.20
2022-12-07T07:26:40.021Z,15.70
2022-12-07T07:27:40.014Z,16.30
2022-12-07T07:28:40.013Z,16.40
2022-12-07T07:29:40.021Z,15.80
2022-12-07T07:30:40.060Z,16.10
2022-12-07T07:31:39.997Z,15.60
2022-12-07T07:32:39.983Z,15.80
2022-12-07T07:33:39.980Z,14.40
2022-12-07T07:34:39.970Z,14.30
2022-12-07T07:35:40.055Z,15.20
2022-12-07T07:36:39.960Z,14.60
2022-12-07T07:37:39.957Z,15.60
2022-12-07T07:38:39.948Z,14.90
2022-12-07T07:39:39.948Z,14.40
2022-12-07T07:40:39.933Z,15.20
2022-12-07T07:41:39.929Z,15.00
2022-12-07T07:42:39.924Z,14.90
2022-12-07T07:43:39.918Z,13.00
2022-12-07T07:44:39.909Z,14.10
2022-12-07T07:45:39.981Z,13.20
2022-12-07T07:46:39.981Z,12.30
2022-12-07T07:47:39.900Z,12.90
2022-12-07T07:48:39.885Z,12.80
2022-12-07T07:49:44.513Z,14.20
2022-12-07T07:50:39.875Z,16.30
2022-12-07T07:51:39.884Z,16.90
2022-12-07T07:52:39.860Z,17.70
2022-12-07T07:53:39.858Z,18.10
2022-12-07T07:54:39.849Z,18.10
2022-12-07T07:55:39.844Z,16.50
2022-12-07T07:56:39.835Z,17.60
2022-12-07T07:57:39.836Z,17.30
2022-12-07T07:58:39.824Z,16.00
2022-12-07T07:59:39.818Z,16.10
2022-12-07T08:00:39.818Z,16.50
2022-12-07T08:01:39.904Z,16.30
2022-12-07T08:02:39.798Z,16.60
2022-12-07T08:03:39.795Z,19.20
2022-12-07T08:04:39.825Z,15.10
2022-12-07T08:05:39.785Z,15.00
2022-12-07T08:06:39.773Z,16.10
2022-12-07T08:07:39.864Z,15.30
2022-12-07T08:08:39.761Z,14.90
2022-12-07T08:09:39.757Z,15.10
2022-12-07T08:10:39.752Z,15.90
2022-12-07T08:11:39.746Z,17.40
2022-12-07T08:12:39.738Z,16.50
2022-12-07T08:13:39.739Z,14.40
2022-12-07T08:14:39.725Z,13.90
2022-12-07T08:15:39.795Z,14.10
2022-12-07T08:16:39.715Z,14.10
2022-12-07T08:17:39.705Z,13.40
2022-12-07T08:18:39.701Z,15.50
2022-12-07T08:19:39.696Z,16.60
2022-12-07T08:20:39.689Z,17.00
2022-12-07T08:21:39.683Z,18.60
2022-12-07T08:22:39.675Z,16.60
2022-12-07T08:23:40.283Z,14.90
2022-12-07T08:24:39.667Z,12.60
2022-12-07T08:25:39.662Z,14.70
2022-12-07T08:26:39.655Z,14.40
2022-12-07T08:27:39.646Z,15.60
2022-12-07T08:28:39.642Z,15.50
2022-12-07T08:29:39.637Z,15.60
2022-12-07T08:30:39.720Z,15.60
2022-12-07T08:31:39.713Z,16.00
2022-12-07T08:32:39.619Z,15.70
2022-12-07T08:33:39.610Z,16.10
2022-12-07T08:34:39.606Z,17.30
2022-12-07T08:35:39.597Z,17.50
2022-12-07T08:36:39.590Z,16.50
2022-12-07T08:37:39.596Z,16.00
2022-12-07T08:38:39.580Z,16.50
2022-12-07T08:39:39.592Z,16.10
2022-12-07T08:40:39.565Z,17.50
2022-12-07T08:41:39.562Z,17.30
2022-12-07T08:42:39.557Z,16.80
2022-12-07T08:43:39.552Z,17.40
2022-12-07T08:44:39.552Z,17.30
2022-12-07T08:45:39.544Z,18.30
2022-12-07T08:46:39.590Z,18.60
2022-12-07T08:47:39.528Z,18.40
2022-12-07T08:48:39.517Z,17.90
2022-12-07T08:49:39.512Z,18.20
2022-12-07T08:50:43.176Z,16.90
2022-12-07T08:51:39.500Z,16.50
2022-12-07T08:52:39.492Z,16.20
2022-12-07T08:53:39.490Z,16.10
2022-12-07T08:54:39.487Z,18.00
2022-12-07T08:55:39.492Z,18.50
2022-12-07T08:56:39.475Z,18.60
2022-12-07T08:57:39.466Z,18.40
2022-12-07T08:58:39.454Z,16.80
2022-12-07T08:59:39.454Z,16.70
2022-12-07T09:00:39.445Z,17.80
2022-12-07T09:01:39.517Z,17.10
2022-12-07T09:02:39.432Z,17.70
2022-12-07T09:03:39.428Z,17.00
2022-12-07T09:04:39.420Z,17.70
2022-12-07T09:05:39.469Z,17.50
2022-12-07T09:06:39.585Z,17.50
2022-12-07T09:07:39.444Z,15.90
2022-12-07T09:08:39.395Z,15.90
2022-12-07T09:09:39.388Z,15.90
2022-12-07T09:10:39.383Z,15.50
2022-12-07T09:11:39.397Z,16.20
2022-12-07T09:12:39.371Z,15.00
2022-12-07T09:13:39.370Z,17.00
2022-12-07T09:14:39.365Z,16.70
2022-12-07T09:15:39.408Z,16.80
2022-12-07T09:16:39.408Z,16.50
2022-12-07T09:17:39.341Z,17.20
2022-12-07T09:18:39.337Z,17.20
2022-12-07T09:19:39.326Z,16.40
2022-12-07T09:20:39.322Z,17.30
2022-12-07T09:21:39.318Z,16.80
2022-12-07T09:22:39.310Z,16.20
2022-12-07T09:23:39.307Z,16.60
2022-12-07T09:24:39.296Z,17.00
2022-12-07T09:25:39.291Z,17.00
2022-12-07T09:26:39.285Z,17.40
2022-12-07T09:27:39.297Z,15.00
2022-12-07T09:28:39.272Z,15.50
2022-12-07T09:29:39.274Z,16.10
2022-12-07T09:31:14.518Z,16.60
2022-12-07T09:31:39.318Z,16.20
2022-12-07T09:32:39.341Z,16.60
2022-12-07T09:33:39.242Z,16.60
2022-12-07T09:34:39.300Z,17.00
2022-12-07T09:35:39.235Z,17.30
2022-12-07T09:36:39.235Z,17.80
2022-12-07T09:37:39.221Z,17.30
2022-12-07T09:38:39.214Z,17.00
2022-12-07T09:39:42.208Z,16.20
2022-12-07T09:40:39.202Z,16.60
2022-12-07T09:41:39.196Z,16.70
2022-12-07T09:42:39.298Z,16.40
2022-12-07T09:43:39.203Z,16.10
2022-12-07T09:44:39.178Z,16.90
2022-12-07T09:45:39.979Z,16.70
2022-12-07T09:46:39.209Z,16.20
2022-12-07T09:47:39.156Z,16.80
2022-12-07T09:48:39.151Z,16.60
2022-12-07T09:49:39.143Z,17.40
2022-12-07T09:50:39.137Z,17.00
2022-12-07T09:51:39.132Z,17.50
2022-12-07T09:52:39.552Z,16.50
2022-12-07T09:53:39.125Z,15.80
2022-12-07T09:54:39.113Z,16.00
2022-12-07T09:55:39.108Z,16.30
2022-12-07T09:56:39.100Z,16.00
2022-12-07T09:57:40.172Z,16.90
2022-12-07T09:58:39.088Z,16.80
2022-12-07T09:59:39.100Z,16.40
2022-12-07T10:00:39.077Z,16.00
2022-12-07T10:01:39.107Z,15.80
2022-12-07T10:02:39.067Z,15.80
2022-12-07T10:03:39.056Z,17.10
2022-12-07T10:04:39.127Z,15.90
2022-12-07T10:05:39.046Z,15.90
2022-12-07T10:06:39.038Z,16.30
2022-12-07T10:07:39.100Z,15.70
2022-12-07T10:08:39.026Z,16.10
2022-12-07T10:09:39.021Z,15.50
2022-12-07T10:10:39.013Z,15.90
2022-12-07T10:11:39.011Z,16.10
2022-12-07T10:12:39.002Z,15.60
2022-12-07T10:13:38.997Z,15.70
2022-12-07T10:15:39.039Z,16.10
2022-12-07T10:16:39.073Z,16.10
2022-12-07T10:17:38.974Z,15.70
2022-12-07T10:18:38.967Z,15.60
2022-12-07T10:19:38.962Z,15.90
2022-12-07T10:20:38.962Z,15.90
2022-12-07T10:21:38.950Z,15.60
2022-12-07T10:22:38.942Z,15.90
2022-12-07T10:23:38.940Z,15.20
2022-12-07T10:24:38.930Z,15.20
2022-12-07T10:25:38.926Z,15.20
2022-12-07T10:26:38.929Z,15.00
2022-12-07T10:27:38.919Z,14.80
2022-12-07T10:28:42.147Z,14.60
2022-12-07T10:29:38.902Z,14.40
2022-12-07T10:30:38.895Z,15.20
2022-12-07T10:31:38.952Z,14.80
2022-12-07T10:32:38.885Z,14.70
2022-12-07T10:33:38.877Z,14.70
2022-12-07T10:34:42.746Z,14.60
2022-12-07T10:35:38.865Z,14.90
2022-12-07T10:36:38.865Z,14.40
2022-12-07T10:37:39.055Z,13.80
2022-12-07T10:38:38.848Z,13.40
2022-12-07T10:39:38.841Z,13.20
2022-12-07T10:40:43.344Z,14.30
2022-12-07T10:41:38.829Z,15.00
2022-12-07T10:42:38.849Z,14.80
2022-12-07T10:43:38.820Z,14.10
2022-12-07T10:44:38.813Z,13.60
2022-12-07T10:45:46.898Z,13.30
2022-12-07T10:46:38.824Z,13.70
2022-12-07T10:47:38.810Z,14.00
2022-12-07T10:48:38.787Z,14.00
2022-12-07T10:49:38.804Z,13.80
2022-12-07T10:50:38.775Z,13.80
2022-12-07T10:51:39.799Z,13.50
2022-12-07T10:52:38.777Z,13.60
2022-12-07T10:53:38.765Z,14.00
2022-12-07T10:54:38.750Z,13.90
2022-12-07T10:55:38.745Z,14.40
2022-12-07T10:56:38.740Z,13.30
2022-12-07T10:57:38.736Z,13.80
2022-12-07T10:58:38.750Z,13.20
2022-12-07T10:59:38.725Z,12.00
2022-12-07T11:00:38.803Z,11.50
2022-12-07T11:01:38.807Z,11.20
2022-12-07T11:02:38.755Z,10.60
2022-12-07T11:03:38.721Z,10.60
2022-12-07T11:04:38.693Z,10.80
2022-12-07T11:05:38.732Z,10.70
2022-12-07T11:06:38.680Z,9.20
2022-12-07T11:07:38.732Z,10.10
2022-12-07T11:08:38.723Z,10.10
2022-12-07T11:10:06.944Z,10.10
2022-12-07T11:10:38.656Z,10.50
2022-12-07T11:11:38.650Z,10.80
2022-12-07T11:12:38.643Z,10.70
2022-12-07T11:13:38.643Z,10.40
2022-12-07T11:14:38.630Z,10.80
2022-12-07T11:15:38.629Z,10.40
2022-12-07T11:16:38.710Z,10.70
2022-12-07T11:17:38.614Z,10.60
2022-12-07T11:18:38.607Z,10.70
2022-12-07T11:19:38.632Z,10.70
2022-12-07T11:20:38.611Z,10.00
2022-12-07T11:21:38.590Z,9.80
2022-12-07T11:22:38.585Z,9.90
2022-12-07T11:23:38.580Z,10.10
2022-12-07T11:24:38.571Z,10.20
2022-12-07T11:25:38.563Z,9.90
2022-12-07T11:26:38.560Z,10.00
2022-12-07T11:27:38.557Z,10.30
2022-12-07T11:28:38.549Z,9.70
2022-12-07T11:29:38.542Z,9.90
2022-12-07T11:30:38.534Z,9.30
2022-12-07T11:31:38.585Z,9.90
2022-12-07T11:32:38.522Z,9.40
2022-12-07T11:33:38.519Z,10.20
2022-12-07T11:34:38.510Z,9.70
2022-12-07T11:35:38.524Z,9.20
2022-12-07T11:36:38.499Z,9.30
2022-12-07T11:38:38.487Z,9.00
2022-12-07T11:39:38.479Z,8.70
2022-12-07T11:40:38.476Z,8.80
2022-12-07T11:41:38.476Z,8.40
2022-12-07T11:42:38.460Z,8.50
2022-12-07T11:43:38.456Z,8.60
2022-12-07T11:44:38.454Z,8.20
2022-12-07T11:45:38.441Z,8.30
2022-12-07T11:46:38.466Z,7.50
2022-12-07T11:47:38.431Z,7.80
2022-12-07T11:48:38.423Z,7.60
2022-12-07T11:49:38.417Z,7.60
2022-12-07T11:50:38.413Z,7.50
2022-12-07T11:51:38.551Z,7.60
2022-12-07T11:52:38.410Z,7.20
2022-12-07T11:53:38.394Z,7.70
2022-12-07T11:54:38.388Z,7.20
2022-12-07T11:55:38.384Z,7.00
2022-12-07T11:56:38.378Z,7.30
2022-12-07T11:57:38.371Z,7.20
2022-12-07T11:58:38.364Z,7.80
2022-12-07T11:59:38.362Z,7.30
2022-12-07T12:00:38.359Z,7.60
2022-12-07T12:01:38.433Z,6.80
2022-12-07T12:02:38.470Z,7.10
2022-12-07T12:03:38.379Z,7.00
2022-12-07T12:04:38.327Z,6.80
2022-12-07T12:05:38.323Z,6.60
2022-12-07T12:06:38.318Z,7.00
2022-12-07T12:10:38.292Z,6.60
2022-12-07T12:11:38.281Z,6.50
2022-12-07T12:14:39.791Z,6.40
2022-12-07T12:15:38.264Z,6.40
2022-12-07T12:16:38.312Z,6.30
2022-12-07T12:17:38.254Z,6.70
2022-12-07T12:18:38.242Z,6.40
2022-12-07T12:19:38.234Z,7.00
2022-12-07T12:20:38.230Z,6.30
2022-12-07T12:21:38.221Z,6.80
2022-12-07T12:22:38.218Z,6.70
2022-12-07T12:23:38.233Z,7.40
2022-12-07T12:24:38.206Z,6.50
2022-12-07T12:25:38.229Z,6.90
2022-12-07T12:26:38.195Z,6.90
2022-12-07T12:27:38.187Z,6.80
2022-12-07T12:28:38.183Z,7.30
2022-12-07T12:29:38.175Z,7.30
2022-12-07T12:30:38.174Z,7.60
2022-12-07T12:31:38.401Z,7.40
2022-12-07T12:32:38.156Z,7.30
2022-12-07T12:33:38.149Z,6.90
2022-12-07T12:34:38.147Z,7.50
2022-12-07T12:35:38.151Z,7.70
2022-12-07T12:36:38.322Z,7.00
2022-12-07T12:37:38.129Z,7.40
2022-12-07T12:38:38.119Z,7.30
2022-12-07T12:39:38.131Z,7.10
2022-12-07T12:40:38.117Z,7.00
2022-12-07T12:41:38.112Z,7.20
2022-12-07T12:42:38.107Z,6.90
2022-12-07T12:43:38.090Z,7.50
2022-12-07T12:44:38.083Z,7.00
2022-12-07T12:45:38.154Z,6.80
2022-12-07T12:46:38.074Z,7.00
2022-12-07T12:47:38.066Z,6.90
2022-12-07T12:48:38.062Z,6.70
2022-12-07T12:49:38.059Z,7.10
2022-12-07T12:50:38.045Z,6.40
2022-12-07T12:51:38.041Z,6.60
2022-12-07T12:52:38.037Z,6.70
2022-12-07T12:53:38.027Z,6.70
2022-12-07T12:54:38.026Z,6.50
2022-12-07T12:55:38.038Z,6.80
2022-12-07T12:56:38.021Z,6.20
2022-12-07T12:57:38.009Z,6.20
2022-12-07T12:58:37.997Z,6.60
2022-12-07T12:59:37.994Z,6.40
2022-12-07T13:00:37.989Z,6.30
2022-12-07T13:01:38.067Z,6.40
2022-12-07T13:02:38.021Z,7.30